sensor_id;sensor_type;location;lat;lon;timestamp;P1;durP1;ratioP1;P2;durP2;ratioP2
49842;SDS011;55559;48.898;9.184;2023-05-18T00:00:17;14.57;;;6.78;;
49842;SDS011;55559;48.898;9.184;2023-05-18T00:02:45;11.82;;;7.10;;
49842;SDS011;55559;48.898;9.184;2023-05-18T00:05:14;15.25;;;7.55;;
49842;SDS011;55559;48.898;9.184;2023-05-18T00:07:43;27.60;;;8.35;;
49842;SDS011;55559;48.898;9.184;2023-05-18T00:10:11;22.10;;;8.60;;
49842;SDS011;55559;48.898;9.184;2023-05-18T00:12:38;15.50;;;7.32;;
49842;SDS011;55559;48.898;9.184;2023-05-18T00:15:06;15.68;;;7.40;;
49842;SDS011;55559;48.898;9.184;2023-05-18T00:17:34;11.55;;;6.53;;
49842;SDS011;55559;48.898;9.184;2023-05-18T00:20:02;22.02;;;8.18;;
49842;SDS011;55559;48.898;9.184;2023-05-18T00:22:30;15.00;;;7.25;;
49842;SDS011;55559;48.898;9.184;2023-05-18T00:24:59;19.90;;;8.63;;
49842;SDS011;55559;48.898;9.184;2023-05-18T00:27:27;15.38;;;8.05;;
49842;SDS011;55559;48.898;9.184;2023-05-18T00:29:54;15.27;;;7.57;;
49842;SDS011;55559;48.898;9.184;2023-05-18T00:32:22;19.75;;;7.35;;
49842;SDS011;55559;48.898;9.184;2023-05-18T00:34:50;13.20;;;7.60;;
49842;SDS011;55559;48.898;9.184;2023-05-18T00:37:17;15.30;;;7.22;;
49842;SDS011;55559;48.898;9.184;2023-05-18T00:39:45;19.13;;;10.25;;
49842;SDS011;55559;48.898;9.184;2023-05-18T00:42:14;17.38;;;8.55;;
49842;SDS011;55559;48.898;9.184;2023-05-18T00:44:42;18.40;;;8.18;;
49842;SDS011;55559;48.898;9.184;2023-05-18T00:47:09;14.30;;;7.35;;
49842;SDS011;55559;48.898;9.184;2023-05-18T00:49:37;16.92;;;7.78;;
49842;SDS011;55559;48.898;9.184;2023-05-18T00:52:04;13.65;;;6.80;;
49842;SDS011;55559;48.898;9.184;2023-05-18T00:54:32;15.93;;;6.55;;
49842;SDS011;55559;48.898;9.184;2023-05-18T00:57:00;16.30;;;7.18;;
49842;SDS011;55559;48.898;9.184;2023-05-18T00:59:29;18.55;;;7.70;;
49842;SDS011;55559;48.898;9.184;2023-05-18T01:01:57;15.05;;;7.10;;
49842;SDS011;55559;48.898;9.184;2023-05-18T01:04:26;15.90;;;7.78;;
49842;SDS011;55559;48.898;9.184;2023-05-18T01:06:56;15.43;;;8.00;;
49842;SDS011;55559;48.898;9.184;2023-05-18T01:09:30;14.32;;;7.70;;
49842;SDS011;55559;48.898;9.184;2023-05-18T01:11:59;16.08;;;6.63;;
49842;SDS011;55559;48.898;9.184;2023-05-18T01:14:34;14.88;;;7.13;;
49842;SDS011;55559;48.898;9.184;2023-05-18T01:17:08;20.13;;;7.78;;
49842;SDS011;55559;48.898;9.184;2023-05-18T01:22:48;15.80;;;7.45;;
49842;SDS011;55559;48.898;9.184;2023-05-18T01:25:28;14.10;;;7.07;;
49842;SDS011;55559;48.898;9.184;2023-05-18T01:28:03;11.73;;;6.85;;
49842;SDS011;55559;48.898;9.184;2023-05-18T01:30:36;19.95;;;7.97;;
49842;SDS011;55559;48.898;9.184;2023-05-18T01:35:35;13.45;;;6.47;;
49842;SDS011;55559;48.898;9.184;2023-05-18T01:38:03;15.07;;;6.68;;
49842;SDS011;55559;48.898;9.184;2023-05-18T01:40:32;15.57;;;7.47;;
49842;SDS011;55559;48.898;9.184;2023-05-18T01:43:07;17.83;;;7.50;;
49842;SDS011;55559;48.898;9.184;2023-05-18T01:45:39;12.88;;;6.50;;
49842;SDS011;55559;48.898;9.184;2023-05-18T01:48:10;11.38;;;7.30;;
49842;SDS011;55559;48.898;9.184;2023-05-18T01:50:42;16.75;;;8.60;;
49842;SDS011;55559;48.898;9.184;2023-05-18T01:53:17;18.17;;;7.85;;
49842;SDS011;55559;48.898;9.184;2023-05-18T01:55:49;14.07;;;7.75;;
49842;SDS011;55559;48.898;9.184;2023-05-18T01:58:21;16.83;;;8.63;;
49842;SDS011;55559;48.898;9.184;2023-05-18T02:00:49;13.02;;;7.57;;
49842;SDS011;55559;48.898;9.184;2023-05-18T02:03:17;14.75;;;7.85;;
49842;SDS011;55559;48.898;9.184;2023-05-18T02:05:45;22.10;;;8.38;;
49842;SDS011;55559;48.898;9.184;2023-05-18T02:08:12;14.32;;;8.18;;
49842;SDS011;55559;48.898;9.184;2023-05-18T02:10:40;19.75;;;9.30;;
49842;SDS011;55559;48.898;9.184;2023-05-18T02:13:08;16.33;;;9.05;;
49842;SDS011;55559;48.898;9.184;2023-05-18T02:15:36;17.80;;;8.18;;
49842;SDS011;55559;48.898;9.184;2023-05-18T02:18:04;12.68;;;8.68;;
49842;SDS011;55559;48.898;9.184;2023-05-18T02:20:34;16.95;;;8.07;;
49842;SDS011;55559;48.898;9.184;2023-05-18T02:23:03;17.27;;;7.93;;
49842;SDS011;55559;48.898;9.184;2023-05-18T02:25:30;15.07;;;7.65;;
49842;SDS011;55559;48.898;9.184;2023-05-18T02:27:58;21.05;;;7.75;;
49842;SDS011;55559;48.898;9.184;2023-05-18T02:30:25;12.73;;;6.82;;
49842;SDS011;55559;48.898;9.184;2023-05-18T02:32:55;16.58;;;6.45;;
49842;SDS011;55559;48.898;9.184;2023-05-18T02:35:25;21.77;;;7.45;;
49842;SDS011;55559;48.898;9.184;2023-05-18T02:37:52;17.60;;;7.20;;
49842;SDS011;55559;48.898;9.184;2023-05-18T02:40:20;11.68;;;7.45;;
49842;SDS011;55559;48.898;9.184;2023-05-18T02:42:47;18.52;;;6.97;;
49842;SDS011;55559;48.898;9.184;2023-05-18T02:45:15;15.43;;;7.07;;
49842;SDS011;55559;48.898;9.184;2023-05-18T02:47:45;19.20;;;6.10;;
49842;SDS011;55559;48.898;9.184;2023-05-18T02:50:14;16.23;;;6.50;;
49842;SDS011;55559;48.898;9.184;2023-05-18T02:52:43;12.93;;;5.95;;
49842;SDS011;55559;48.898;9.184;2023-05-18T02:55:14;14.38;;;5.85;;
49842;SDS011;55559;48.898;9.184;2023-05-18T02:58:13;16.13;;;5.65;;
49842;SDS011;55559;48.898;9.184;2023-05-18T03:01:14;20.70;;;5.30;;
49842;SDS011;55559;48.898;9.184;2023-05-18T03:03:47;13.05;;;5.70;;
49842;SDS011;55559;48.898;9.184;2023-05-18T03:06:17;14.05;;;4.88;;
49842;SDS011;55559;48.898;9.184;2023-05-18T03:08:48;12.57;;;5.40;;
49842;SDS011;55559;48.898;9.184;2023-05-18T03:11:21;8.32;;;4.72;;
49842;SDS011;55559;48.898;9.184;2023-05-18T03:13:49;14.60;;;6.40;;
49842;SDS011;55559;48.898;9.184;2023-05-18T03:16:17;15.25;;;5.95;;
49842;SDS011;55559;48.898;9.184;2023-05-18T03:18:45;11.88;;;5.68;;
49842;SDS011;55559;48.898;9.184;2023-05-18T03:21:13;9.38;;;4.90;;
49842;SDS011;55559;48.898;9.184;2023-05-18T03:23:42;14.48;;;4.75;;
49842;SDS011;55559;48.898;9.184;2023-05-18T03:26:10;12.68;;;5.10;;
49842;SDS011;55559;48.898;9.184;2023-05-18T03:28:37;9.13;;;5.32;;
49842;SDS011;55559;48.898;9.184;2023-05-18T03:31:05;16.40;;;4.75;;
49842;SDS011;55559;48.898;9.184;2023-05-18T03:33:33;16.10;;;4.25;;
49842;SDS011;55559;48.898;9.184;2023-05-18T03:36:01;13.57;;;5.35;;
49842;SDS011;55559;48.898;9.184;2023-05-18T03:38:30;17.55;;;4.72;;
49842;SDS011;55559;48.898;9.184;2023-05-18T03:41:05;20.23;;;5.55;;
49842;SDS011;55559;48.898;9.184;2023-05-18T03:43:32;18.38;;;5.05;;
49842;SDS011;55559;48.898;9.184;2023-05-18T03:46:00;17.92;;;5.00;;
49842;SDS011;55559;48.898;9.184;2023-05-18T03:48:28;8.63;;;4.38;;
49842;SDS011;55559;48.898;9.184;2023-05-18T03:50:55;14.55;;;5.30;;
49842;SDS011;55559;48.898;9.184;2023-05-18T03:53:26;17.52;;;5.55;;
49842;SDS011;55559;48.898;9.184;2023-05-18T03:55:54;9.13;;;4.43;;
49842;SDS011;55559;48.898;9.184;2023-05-18T03:58:23;13.77;;;4.45;;
49842;SDS011;55559;48.898;9.184;2023-05-18T04:00:52;10.20;;;5.03;;
49842;SDS011;55559;48.898;9.184;2023-05-18T04:03:20;16.67;;;5.28;;
49842;SDS011;55559;48.898;9.184;2023-05-18T04:05:50;13.52;;;4.28;;
49842;SDS011;55559;48.898;9.184;2023-05-18T04:08:17;11.55;;;5.30;;
49842;SDS011;55559;48.898;9.184;2023-05-18T04:10:45;15.90;;;5.13;;
49842;SDS011;55559;48.898;9.184;2023-05-18T04:13:12;17.33;;;5.15;;
49842;SDS011;55559;48.898;9.184;2023-05-18T04:15:42;15.82;;;5.18;;
49842;SDS011;55559;48.898;9.184;2023-05-18T04:18:11;17.50;;;5.13;;
49842;SDS011;55559;48.898;9.184;2023-05-18T04:20:40;10.48;;;3.95;;
49842;SDS011;55559;48.898;9.184;2023-05-18T04:23:10;11.43;;;3.22;;
49842;SDS011;55559;48.898;9.184;2023-05-18T04:25:38;12.60;;;3.25;;
49842;SDS011;55559;48.898;9.184;2023-05-18T04:28:06;14.13;;;3.88;;
49842;SDS011;55559;48.898;9.184;2023-05-18T04:30:34;10.68;;;3.63;;
49842;SDS011;55559;48.898;9.184;2023-05-18T04:33:05;13.98;;;4.53;;
49842;SDS011;55559;48.898;9.184;2023-05-18T04:35:33;16.45;;;4.35;;
49842;SDS011;55559;48.898;9.184;2023-05-18T04:38:01;14.57;;;4.18;;
49842;SDS011;55559;48.898;9.184;2023-05-18T04:40:30;11.10;;;4.15;;
49842;SDS011;55559;48.898;9.184;2023-05-18T04:42:59;12.00;;;3.53;;
49842;SDS011;55559;48.898;9.184;2023-05-18T04:45:30;10.32;;;4.28;;
49842;SDS011;55559;48.898;9.184;2023-05-18T04:47:59;13.85;;;4.50;;
49842;SDS011;55559;48.898;9.184;2023-05-18T04:50:28;13.05;;;3.80;;
49842;SDS011;55559;48.898;9.184;2023-05-18T04:52:56;17.40;;;3.53;;
49842;SDS011;55559;48.898;9.184;2023-05-18T04:55:26;9.65;;;3.33;;
49842;SDS011;55559;48.898;9.184;2023-05-18T04:58:02;12.27;;;3.00;;
49842;SDS011;55559;48.898;9.184;2023-05-18T05:00:30;19.25;;;4.10;;
49842;SDS011;55559;48.898;9.184;2023-05-18T05:02:58;20.90;;;3.45;;
49842;SDS011;55559;48.898;9.184;2023-05-18T05:05:25;11.57;;;3.08;;
49842;SDS011;55559;48.898;9.184;2023-05-18T05:07:55;12.20;;;2.90;;
49842;SDS011;55559;48.898;9.184;2023-05-18T05:10:23;15.73;;;2.70;;
49842;SDS011;55559;48.898;9.184;2023-05-18T05:12:52;11.45;;;2.28;;
49842;SDS011;55559;48.898;9.184;2023-05-18T05:15:20;10.35;;;2.42;;
49842;SDS011;55559;48.898;9.184;2023-05-18T05:17:49;11.95;;;2.17;;
49842;SDS011;55559;48.898;9.184;2023-05-18T05:20:17;17.98;;;3.15;;
49842;SDS011;55559;48.898;9.184;2023-05-18T05:22:44;7.75;;;2.33;;
49842;SDS011;55559;48.898;9.184;2023-05-18T05:25:16;14.43;;;3.25;;
49842;SDS011;55559;48.898;9.184;2023-05-18T05:27:44;12.05;;;2.88;;
49842;SDS011;55559;48.898;9.184;2023-05-18T05:30:12;11.13;;;3.55;;
49842;SDS011;55559;48.898;9.184;2023-05-18T05:32:41;8.60;;;2.55;;
49842;SDS011;55559;48.898;9.184;2023-05-18T05:35:09;12.95;;;2.53;;
49842;SDS011;55559;48.898;9.184;2023-05-18T05:37:37;13.40;;;3.63;;
49842;SDS011;55559;48.898;9.184;2023-05-18T05:40:06;9.95;;;2.35;;
49842;SDS011;55559;48.898;9.184;2023-05-18T05:42:41;15.52;;;3.10;;
49842;SDS011;55559;48.898;9.184;2023-05-18T05:45:09;16.73;;;2.58;;
49842;SDS011;55559;48.898;9.184;2023-05-18T05:50:11;16.70;;;1.40;;
49842;SDS011;55559;48.898;9.184;2023-05-18T05:52:38;12.88;;;1.90;;
49842;SDS011;55559;48.898;9.184;2023-05-18T05:55:06;10.65;;;1.80;;
49842;SDS011;55559;48.898;9.184;2023-05-18T05:57:34;13.23;;;3.20;;
49842;SDS011;55559;48.898;9.184;2023-05-18T06:00:06;6.80;;;0.90;;
49842;SDS011;55559;48.898;9.184;2023-05-18T06:02:46;11.45;;;1.30;;
49842;SDS011;55559;48.898;9.184;2023-05-18T06:05:20;11.45;;;1.20;;
49842;SDS011;55559;48.898;9.184;2023-05-18T06:07:48;13.32;;;1.80;;
49842;SDS011;55559;48.898;9.184;2023-05-18T06:10:15;7.22;;;1.45;;
49842;SDS011;55559;48.898;9.184;2023-05-18T06:12:43;11.18;;;1.02;;
49842;SDS011;55559;48.898;9.184;2023-05-18T06:15:12;16.92;;;2.45;;
49842;SDS011;55559;48.898;9.184;2023-05-18T06:17:40;10.20;;;1.13;;
49842;SDS011;55559;48.898;9.184;2023-05-18T06:20:09;5.00;;;0.82;;
49842;SDS011;55559;48.898;9.184;2023-05-18T06:22:38;11.13;;;1.00;;
49842;SDS011;55559;48.898;9.184;2023-05-18T06:25:21;9.40;;;1.00;;
49842;SDS011;55559;48.898;9.184;2023-05-18T06:28:07;9.75;;;0.95;;
49842;SDS011;55559;48.898;9.184;2023-05-18T06:30:43;7.93;;;1.23;;
49842;SDS011;55559;48.898;9.184;2023-05-18T06:33:31;6.13;;;0.98;;
49842;SDS011;55559;48.898;9.184;2023-05-18T06:35:58;10.77;;;1.55;;
49842;SDS011;55559;48.898;9.184;2023-05-18T06:38:26;12.45;;;1.02;;
49842;SDS011;55559;48.898;9.184;2023-05-18T06:40:53;9.80;;;1.00;;
49842;SDS011;55559;48.898;9.184;2023-05-18T06:43:21;10.50;;;1.02;;
49842;SDS011;55559;48.898;9.184;2023-05-18T06:46:20;13.93;;;1.48;;
49842;SDS011;55559;48.898;9.184;2023-05-18T06:48:55;9.63;;;1.10;;
49842;SDS011;55559;48.898;9.184;2023-05-18T06:51:23;9.52;;;1.45;;
49842;SDS011;55559;48.898;9.184;2023-05-18T06:53:53;13.00;;;1.52;;
49842;SDS011;55559;48.898;9.184;2023-05-18T06:56:21;5.43;;;0.85;;
49842;SDS011;55559;48.898;9.184;2023-05-18T06:58:50;9.80;;;0.90;;
49842;SDS011;55559;48.898;9.184;2023-05-18T07:01:17;10.88;;;1.45;;
49842;SDS011;55559;48.898;9.184;2023-05-18T07:03:46;13.50;;;1.27;;
49842;SDS011;55559;48.898;9.184;2023-05-18T07:06:14;7.95;;;1.17;;
49842;SDS011;55559;48.898;9.184;2023-05-18T07:08:42;9.55;;;1.30;;
49842;SDS011;55559;48.898;9.184;2023-05-18T07:11:10;12.18;;;0.90;;
49842;SDS011;55559;48.898;9.184;2023-05-18T07:13:37;8.80;;;1.50;;
49842;SDS011;55559;48.898;9.184;2023-05-18T07:16:05;15.82;;;1.45;;
49842;SDS011;55559;48.898;9.184;2023-05-18T07:18:32;14.95;;;1.50;;
49842;SDS011;55559;48.898;9.184;2023-05-18T07:21:04;11.98;;;1.50;;
49842;SDS011;55559;48.898;9.184;2023-05-18T07:23:31;7.68;;;0.93;;
49842;SDS011;55559;48.898;9.184;2023-05-18T07:25:59;8.05;;;0.93;;
49842;SDS011;55559;48.898;9.184;2023-05-18T07:28:26;11.00;;;1.45;;
49842;SDS011;55559;48.898;9.184;2023-05-18T07:30:54;9.40;;;1.00;;
49842;SDS011;55559;48.898;9.184;2023-05-18T07:33:21;11.88;;;1.13;;
49842;SDS011;55559;48.898;9.184;2023-05-18T07:35:51;12.77;;;1.58;;
49842;SDS011;55559;48.898;9.184;2023-05-18T07:38:20;11.70;;;1.30;;
49842;SDS011;55559;48.898;9.184;2023-05-18T07:40:47;16.27;;;0.98;;
49842;SDS011;55559;48.898;9.184;2023-05-18T07:43:14;7.43;;;1.10;;
49842;SDS011;55559;48.898;9.184;2023-05-18T07:45:42;8.15;;;0.93;;
49842;SDS011;55559;48.898;9.184;2023-05-18T07:48:09;11.18;;;0.90;;
49842;SDS011;55559;48.898;9.184;2023-05-18T07:50:37;11.25;;;1.08;;
49842;SDS011;55559;48.898;9.184;2023-05-18T07:53:04;11.13;;;1.10;;
49842;SDS011;55559;48.898;9.184;2023-05-18T07:55:33;14.38;;;1.20;;
49842;SDS011;55559;48.898;9.184;2023-05-18T07:58:01;15.52;;;1.58;;
49842;SDS011;55559;48.898;9.184;2023-05-18T08:00:29;23.42;;;1.45;;
49842;SDS011;55559;48.898;9.184;2023-05-18T08:02:56;11.65;;;1.67;;
49842;SDS011;55559;48.898;9.184;2023-05-18T08:05:25;10.98;;;1.10;;
49842;SDS011;55559;48.898;9.184;2023-05-18T08:07:52;13.68;;;1.10;;
49842;SDS011;55559;48.898;9.184;2023-05-18T08:10:20;10.00;;;1.02;;
49842;SDS011;55559;48.898;9.184;2023-05-18T08:12:49;13.27;;;1.30;;
49842;SDS011;55559;48.898;9.184;2023-05-18T08:15:17;10.60;;;1.08;;
49842;SDS011;55559;48.898;9.184;2023-05-18T08:17:44;9.98;;;1.25;;
49842;SDS011;55559;48.898;9.184;2023-05-18T08:20:12;10.18;;;1.25;;
49842;SDS011;55559;48.898;9.184;2023-05-18T08:22:39;12.52;;;1.65;;
49842;SDS011;55559;48.898;9.184;2023-05-18T08:25:07;8.27;;;1.55;;
49842;SDS011;55559;48.898;9.184;2023-05-18T08:27:36;9.23;;;0.95;;
49842;SDS011;55559;48.898;9.184;2023-05-18T08:30:05;12.95;;;0.98;;
49842;SDS011;55559;48.898;9.184;2023-05-18T08:32:33;8.10;;;1.48;;
49842;SDS011;55559;48.898;9.184;2023-05-18T08:35:03;24.67;;;1.88;;
49842;SDS011;55559;48.898;9.184;2023-05-18T08:37:32;9.20;;;1.20;;
49842;SDS011;55559;48.898;9.184;2023-05-18T08:40:01;14.15;;;1.23;;
49842;SDS011;55559;48.898;9.184;2023-05-18T08:42:36;10.23;;;1.80;;
49842;SDS011;55559;48.898;9.184;2023-05-18T08:45:09;7.28;;;0.93;;
49842;SDS011;55559;48.898;9.184;2023-05-18T08:47:39;6.22;;;1.02;;
49842;SDS011;55559;48.898;9.184;2023-05-18T08:50:07;12.32;;;1.13;;
49842;SDS011;55559;48.898;9.184;2023-05-18T08:52:41;13.43;;;1.20;;
49842;SDS011;55559;48.898;9.184;2023-05-18T08:57:42;14.38;;;1.15;;
49842;SDS011;55559;48.898;9.184;2023-05-18T09:00:16;10.87;;;1.00;;
49842;SDS011;55559;48.898;9.184;2023-05-18T09:02:43;9.90;;;1.40;;
49842;SDS011;55559;48.898;9.184;2023-05-18T09:05:13;13.05;;;0.80;;
49842;SDS011;55559;48.898;9.184;2023-05-18T09:07:42;7.63;;;1.27;;
49842;SDS011;55559;48.898;9.184;2023-05-18T09:10:10;12.73;;;1.63;;
49842;SDS011;55559;48.898;9.184;2023-05-18T09:12:40;10.05;;;1.30;;
49842;SDS011;55559;48.898;9.184;2023-05-18T09:15:11;11.88;;;1.10;;
49842;SDS011;55559;48.898;9.184;2023-05-18T09:17:41;13.98;;;1.17;;
49842;SDS011;55559;48.898;9.184;2023-05-18T09:20:08;7.30;;;0.98;;
49842;SDS011;55559;48.898;9.184;2023-05-18T09:22:36;6.07;;;1.25;;
49842;SDS011;55559;48.898;9.184;2023-05-18T09:25:05;10.93;;;1.42;;
49842;SDS011;55559;48.898;9.184;2023-05-18T09:27:34;14.55;;;1.25;;
49842;SDS011;55559;48.898;9.184;2023-05-18T09:30:02;15.30;;;1.10;;
49842;SDS011;55559;48.898;9.184;2023-05-18T09:32:33;9.50;;;1.10;;
49842;SDS011;55559;48.898;9.184;2023-05-18T09:35:04;5.30;;;1.23;;
49842;SDS011;55559;48.898;9.184;2023-05-18T09:37:32;11.25;;;1.80;;
49842;SDS011;55559;48.898;9.184;2023-05-18T09:40:00;9.23;;;1.17;;
49842;SDS011;55559;48.898;9.184;2023-05-18T09:42:34;11.07;;;1.38;;
49842;SDS011;55559;48.898;9.184;2023-05-18T09:45:02;5.85;;;1.00;;
49842;SDS011;55559;48.898;9.184;2023-05-18T09:47:33;9.45;;;0.88;;
49842;SDS011;55559;48.898;9.184;2023-05-18T09:50:00;9.55;;;1.48;;
49842;SDS011;55559;48.898;9.184;2023-05-18T09:52:29;11.43;;;1.20;;
49842;SDS011;55559;48.898;9.184;2023-05-18T09:54:57;9.65;;;1.25;;
49842;SDS011;55559;48.898;9.184;2023-05-18T09:57:25;10.93;;;1.27;;
49842;SDS011;55559;48.898;9.184;2023-05-18T10:00:01;10.30;;;0.98;;
49842;SDS011;55559;48.898;9.184;2023-05-18T10:02:36;9.55;;;0.77;;
49842;SDS011;55559;48.898;9.184;2023-05-18T10:05:04;7.88;;;1.00;;
49842;SDS011;55559;48.898;9.184;2023-05-18T10:07:35;5.97;;;0.80;;
49842;SDS011;55559;48.898;9.184;2023-05-18T10:10:02;7.38;;;1.25;;
49842;SDS011;55559;48.898;9.184;2023-05-18T10:12:30;13.35;;;0.82;;
49842;SDS011;55559;48.898;9.184;2023-05-18T10:14:58;8.82;;;1.45;;
49842;SDS011;55559;48.898;9.184;2023-05-18T10:17:25;13.88;;;1.30;;
49842;SDS011;55559;48.898;9.184;2023-05-18T10:19:54;7.28;;;1.00;;
49842;SDS011;55559;48.898;9.184;2023-05-18T10:22:23;7.80;;;0.80;;
49842;SDS011;55559;48.898;9.184;2023-05-18T10:24:54;9.48;;;1.10;;
49842;SDS011;55559;48.898;9.184;2023-05-18T10:27:25;10.85;;;0.88;;
49842;SDS011;55559;48.898;9.184;2023-05-18T10:29:54;8.35;;;1.17;;
49842;SDS011;55559;48.898;9.184;2023-05-18T10:32:24;5.70;;;0.95;;
49842;SDS011;55559;48.898;9.184;2023-05-18T10:34:52;7.72;;;1.02;;
49842;SDS011;55559;48.898;9.184;2023-05-18T10:37:22;10.98;;;1.20;;
49842;SDS011;55559;48.898;9.184;2023-05-18T10:39:50;12.43;;;1.50;;
49842;SDS011;55559;48.898;9.184;2023-05-18T10:42:24;13.32;;;1.88;;
49842;SDS011;55559;48.898;9.184;2023-05-18T10:44:52;10.52;;;1.40;;
49842;SDS011;55559;48.898;9.184;2023-05-18T10:47:20;7.07;;;1.08;;
49842;SDS011;55559;48.898;9.184;2023-05-18T10:49:50;10.52;;;1.58;;
49842;SDS011;55559;48.898;9.184;2023-05-18T10:52:20;11.13;;;1.42;;
49842;SDS011;55559;48.898;9.184;2023-05-18T10:54:48;6.78;;;1.00;;
49842;SDS011;55559;48.898;9.184;2023-05-18T10:57:18;11.07;;;1.48;;
49842;SDS011;55559;48.898;9.184;2023-05-18T10:59:47;9.90;;;1.00;;
49842;SDS011;55559;48.898;9.184;2023-05-18T11:02:16;11.77;;;1.58;;
49842;SDS011;55559;48.898;9.184;2023-05-18T11:04:45;13.40;;;1.13;;
49842;SDS011;55559;48.898;9.184;2023-05-18T11:07:13;6.07;;;1.20;;
49842;SDS011;55559;48.898;9.184;2023-05-18T11:09:42;8.88;;;1.35;;
49842;SDS011;55559;48.898;9.184;2023-05-18T11:12:10;7.47;;;1.00;;
49842;SDS011;55559;48.898;9.184;2023-05-18T11:14:47;6.72;;;1.10;;
49842;SDS011;55559;48.898;9.184;2023-05-18T11:17:16;14.15;;;1.15;;
49842;SDS011;55559;48.898;9.184;2023-05-18T11:22:47;7.15;;;1.08;;
49842;SDS011;55559;48.898;9.184;2023-05-18T11:28:10;11.00;;;1.30;;
49842;SDS011;55559;48.898;9.184;2023-05-18T11:30:47;8.75;;;0.82;;
49842;SDS011;55559;48.898;9.184;2023-05-18T11:33:25;6.35;;;1.00;;
49842;SDS011;55559;48.898;9.184;2023-05-18T11:35:59;5.70;;;1.20;;
49842;SDS011;55559;48.898;9.184;2023-05-18T11:41:30;9.00;;;0.90;;
49842;SDS011;55559;48.898;9.184;2023-05-18T11:44:02;7.60;;;0.88;;
49842;SDS011;55559;48.898;9.184;2023-05-18T11:46:54;10.85;;;0.77;;
49842;SDS011;55559;48.898;9.184;2023-05-18T11:49:27;7.65;;;0.77;;
49842;SDS011;55559;48.898;9.184;2023-05-18T11:51:56;9.40;;;0.90;;
49842;SDS011;55559;48.898;9.184;2023-05-18T11:54:27;6.77;;;1.03;;
49842;SDS011;55559;48.898;9.184;2023-05-18T11:57:00;9.48;;;1.23;;
49842;SDS011;55559;48.898;9.184;2023-05-18T11:59:29;5.63;;;0.85;;
49842;SDS011;55559;48.898;9.184;2023-05-18T12:01:59;6.53;;;0.77;;
49842;SDS011;55559;48.898;9.184;2023-05-18T12:04:28;10.23;;;0.85;;
49842;SDS011;55559;48.898;9.184;2023-05-18T12:06:58;9.15;;;1.13;;
49842;SDS011;55559;48.898;9.184;2023-05-18T12:09:26;9.70;;;1.20;;
49842;SDS011;55559;48.898;9.184;2023-05-18T12:11:57;6.95;;;0.80;;
49842;SDS011;55559;48.898;9.184;2023-05-18T12:14:24;7.03;;;0.80;;
49842;SDS011;55559;48.898;9.184;2023-05-18T12:16:53;10.85;;;0.90;;
49842;SDS011;55559;48.898;9.184;2023-05-18T12:19:25;7.80;;;0.90;;
49842;SDS011;55559;48.898;9.184;2023-05-18T12:21:53;11.57;;;0.80;;
49842;SDS011;55559;48.898;9.184;2023-05-18T12:24:20;6.47;;;0.88;;
49842;SDS011;55559;48.898;9.184;2023-05-18T12:26:48;6.78;;;0.80;;
49842;SDS011;55559;48.898;9.184;2023-05-18T12:29:16;8.43;;;0.85;;
49842;SDS011;55559;48.898;9.184;2023-05-18T12:31:47;9.13;;;1.00;;
49842;SDS011;55559;48.898;9.184;2023-05-18T12:34:15;6.25;;;1.15;;
49842;SDS011;55559;48.898;9.184;2023-05-18T12:36:53;9.68;;;1.05;;
49842;SDS011;55559;48.898;9.184;2023-05-18T12:39:20;5.65;;;0.73;;
49842;SDS011;55559;48.898;9.184;2023-05-18T12:41:48;5.75;;;0.70;;
49842;SDS011;55559;48.898;9.184;2023-05-18T12:44:15;7.55;;;1.05;;
49842;SDS011;55559;48.898;9.184;2023-05-18T12:46:43;5.70;;;0.80;;
49842;SDS011;55559;48.898;9.184;2023-05-18T12:49:10;6.65;;;0.68;;
49842;SDS011;55559;48.898;9.184;2023-05-18T12:51:38;6.80;;;0.63;;
49842;SDS011;55559;48.898;9.184;2023-05-18T12:54:07;5.80;;;0.75;;
49842;SDS011;55559;48.898;9.184;2023-05-18T12:56:51;6.05;;;1.15;;
49842;SDS011;55559;48.898;9.184;2023-05-18T12:59:24;6.53;;;0.73;;
49842;SDS011;55559;48.898;9.184;2023-05-18T13:01:52;6.80;;;0.77;;
49842;SDS011;55559;48.898;9.184;2023-05-18T13:04:30;9.77;;;0.95;;
49842;SDS011;55559;48.898;9.184;2023-05-18T13:06:59;3.45;;;0.60;;
49842;SDS011;55559;48.898;9.184;2023-05-18T13:09:28;7.75;;;0.80;;
49842;SDS011;55559;48.898;9.184;2023-05-18T13:11:58;10.32;;;1.52;;
49842;SDS011;55559;48.898;9.184;2023-05-18T13:14:27;7.10;;;1.00;;
49842;SDS011;55559;48.898;9.184;2023-05-18T13:16:55;5.35;;;0.90;;
49842;SDS011;55559;48.898;9.184;2023-05-18T13:19:24;9.07;;;1.40;;
49842;SDS011;55559;48.898;9.184;2023-05-18T13:21:55;13.73;;;1.00;;
49842;SDS011;55559;48.898;9.184;2023-05-18T13:24:23;6.60;;;0.77;;
49842;SDS011;55559;48.898;9.184;2023-05-18T13:26:52;6.85;;;1.02;;
49842;SDS011;55559;48.898;9.184;2023-05-18T13:29:19;11.63;;;2.00;;
49842;SDS011;55559;48.898;9.184;2023-05-18T13:31:47;7.82;;;1.05;;
49842;SDS011;55559;48.898;9.184;2023-05-18T13:34:15;7.90;;;1.60;;
49842;SDS011;55559;48.898;9.184;2023-05-18T13:36:42;6.47;;;0.88;;
49842;SDS011;55559;48.898;9.184;2023-05-18T13:39:10;10.32;;;1.02;;
49842;SDS011;55559;48.898;9.184;2023-05-18T13:41:37;12.07;;;1.38;;
49842;SDS011;55559;48.898;9.184;2023-05-18T13:44:06;12.45;;;1.55;;
49842;SDS011;55559;48.898;9.184;2023-05-18T13:46:33;10.40;;;1.20;;
49842;SDS011;55559;48.898;9.184;2023-05-18T13:49:01;6.35;;;1.10;;
49842;SDS011;55559;48.898;9.184;2023-05-18T13:51:29;8.77;;;0.93;;
49842;SDS011;55559;48.898;9.184;2023-05-18T13:53:56;13.57;;;1.10;;
49842;SDS011;55559;48.898;9.184;2023-05-18T13:56:24;9.75;;;0.93;;
49842;SDS011;55559;48.898;9.184;2023-05-18T13:58:52;5.07;;;1.23;;
49842;SDS011;55559;48.898;9.184;2023-05-18T14:03:57;6.60;;;0.80;;
49842;SDS011;55559;48.898;9.184;2023-05-18T14:06:24;11.73;;;1.00;;
49842;SDS011;55559;48.898;9.184;2023-05-18T14:08:52;9.85;;;1.00;;
49842;SDS011;55559;48.898;9.184;2023-05-18T14:11:23;7.85;;;1.00;;
49842;SDS011;55559;48.898;9.184;2023-05-18T14:13:50;9.65;;;0.80;;
49842;SDS011;55559;48.898;9.184;2023-05-18T14:16:18;7.63;;;0.98;;
49842;SDS011;55559;48.898;9.184;2023-05-18T14:18:47;14.05;;;2.55;;
49842;SDS011;55559;48.898;9.184;2023-05-18T14:21:14;11.88;;;0.90;;
49842;SDS011;55559;48.898;9.184;2023-05-18T14:23:42;10.50;;;1.30;;
49842;SDS011;55559;48.898;9.184;2023-05-18T14:26:09;10.20;;;1.10;;
49842;SDS011;55559;48.898;9.184;2023-05-18T14:28:36;8.30;;;1.17;;
49842;SDS011;55559;48.898;9.184;2023-05-18T14:31:04;7.32;;;1.08;;
49842;SDS011;55559;48.898;9.184;2023-05-18T14:33:32;9.32;;;1.02;;
49842;SDS011;55559;48.898;9.184;2023-05-18T14:36:00;6.78;;;0.95;;
49842;SDS011;55559;48.898;9.184;2023-05-18T14:38:28;3.83;;;0.73;;
49842;SDS011;55559;48.898;9.184;2023-05-18T14:40:55;10.20;;;0.90;;
49842;SDS011;55559;48.898;9.184;2023-05-18T14:43:23;10.80;;;0.80;;
49842;SDS011;55559;48.898;9.184;2023-05-18T14:45:50;12.15;;;1.15;;
49842;SDS011;55559;48.898;9.184;2023-05-18T14:48:17;8.30;;;1.15;;
49842;SDS011;55559;48.898;9.184;2023-05-18T14:50:44;9.75;;;1.13;;
49842;SDS011;55559;48.898;9.184;2023-05-18T14:53:13;10.65;;;0.70;;
49842;SDS011;55559;48.898;9.184;2023-05-18T14:55:41;8.68;;;0.60;;
49842;SDS011;55559;48.898;9.184;2023-05-18T14:58:08;6.40;;;0.75;;
49842;SDS011;55559;48.898;9.184;2023-05-18T15:00:39;4.22;;;0.50;;
49842;SDS011;55559;48.898;9.184;2023-05-18T15:03:07;12.05;;;1.13;;
49842;SDS011;55559;48.898;9.184;2023-05-18T15:05:34;8.27;;;0.77;;
49842;SDS011;55559;48.898;9.184;2023-05-18T15:08:03;10.32;;;1.15;;
49842;SDS011;55559;48.898;9.184;2023-05-18T15:10:32;5.15;;;1.08;;
49842;SDS011;55559;48.898;9.184;2023-05-18T15:12:59;7.38;;;0.88;;